createdAt,value
2023-04-21T00:01:40.009Z,7.40
2023-04-21T00:04:13.350Z,7.03
2023-04-21T00:06:44.349Z,7.10
2023-04-21T00:09:14.456Z,7.40
2023-04-21T00:11:44.571Z,6.63
2023-04-21T00:14:15.108Z,6.97
2023-04-21T00:16:45.830Z,6.70
2023-04-21T00:19:18.342Z,7.43
2023-04-21T00:21:49.148Z,7.83
2023-04-21T00:24:20.694Z,7.13
2023-04-21T00:26:51.425Z,7.10
2023-04-21T00:29:22.059Z,7.50
2023-04-21T00:31:55.451Z,8.03
2023-04-21T00:34:28.020Z,8.27
2023-04-21T00:36:58.244Z,7.40
2023-04-21T00:39:29.189Z,7.63
2023-04-21T00:41:59.914Z,6.80
2023-04-21T00:44:31.468Z,7.28
2023-04-21T00:47:02.551Z,7.17
2023-04-21T00:49:32.942Z,7.20
2023-04-21T00:52:05.918Z,7.13
2023-04-21T00:54:38.701Z,6.60
2023-04-21T00:57:09.635Z,7.50
2023-04-21T00:59:39.964Z,7.57
2023-04-21T01:02:11.647Z,6.77
2023-04-21T01:04:42.249Z,7.33
2023-04-21T01:07:14.038Z,7.87
2023-04-21T01:09:44.328Z,8.10
2023-04-21T01:12:14.863Z,7.30
2023-04-21T01:14:45.997Z,7.50
2023-04-21T01:17:18.594Z,7.70
2023-04-21T01:19:53.605Z,7.00
2023-04-21T01:22:23.378Z,8.20
2023-04-21T01:24:54.453Z,8.70
2023-04-21T01:27:26.620Z,8.60
2023-04-21T01:29:59.233Z,8.43
2023-04-21T01:32:33.903Z,7.57
2023-04-21T01:35:09.667Z,7.40
2023-04-21T01:37:41.837Z,7.67
2023-04-21T01:40:14.216Z,6.87
2023-04-21T01:42:46.168Z,8.27
2023-04-21T01:45:20.179Z,7.83
2023-04-21T01:47:52.820Z,7.50
2023-04-21T01:50:23.496Z,7.50
2023-04-21T01:52:53.815Z,7.40
2023-04-21T01:55:24.824Z,7.67
2023-04-21T01:57:57.329Z,6.80
2023-04-21T02:00:28.275Z,7.33
2023-04-21T02:02:58.933Z,7.13
2023-04-21T02:05:30.363Z,7.43
2023-04-21T02:08:00.875Z,6.73
2023-04-21T02:10:31.395Z,6.90
2023-04-21T02:13:01.722Z,7.93
2023-04-21T02:15:34.114Z,7.33
2023-04-21T02:18:04.879Z,7.37
2023-04-21T02:20:35.592Z,6.73
2023-04-21T02:23:05.875Z,7.37
2023-04-21T02:25:36.828Z,7.07
2023-04-21T02:28:09.182Z,7.87
2023-04-21T02:30:42.589Z,7.47
2023-04-21T02:33:16.439Z,7.53
2023-04-21T02:35:47.727Z,7.17
2023-04-21T02:38:18.253Z,7.20
2023-04-21T02:40:55.371Z,7.07
2023-04-21T02:43:26.475Z,7.07
2023-04-21T02:45:59.258Z,6.67
2023-04-21T02:48:29.790Z,7.40
2023-04-21T02:51:00.513Z,7.57
2023-04-21T02:53:31.252Z,9.67
2023-04-21T02:56:04.441Z,9.37
2023-04-21T02:58:36.194Z,9.67
2023-04-21T03:01:07.791Z,9.18
2023-04-21T03:03:38.342Z,8.85
2023-04-21T03:06:09.824Z,7.47
2023-04-21T03:08:40.352Z,7.60
2023-04-21T03:11:10.268Z,8.03
2023-04-21T03:13:41.201Z,7.50
2023-04-21T03:16:12.974Z,7.57
2023-04-21T03:18:43.484Z,7.53
2023-04-21T03:21:15.659Z,8.30
2023-04-21T03:23:45.572Z,9.00
2023-04-21T03:26:17.326Z,8.73
2023-04-21T03:28:47.851Z,9.10
2023-04-21T03:31:17.964Z,9.70
2023-04-21T03:33:48.702Z,8.87
2023-04-21T03:36:19.435Z,9.70
2023-04-21T03:38:49.551Z,8.90
2023-04-21T03:41:21.101Z,9.10
2023-04-21T03:43:53.066Z,9.63
2023-04-21T03:46:23.824Z,10.13
2023-04-21T03:48:54.532Z,10.10
2023-04-21T03:51:24.661Z,9.87
2023-04-21T03:53:55.185Z,10.20
2023-04-21T03:56:26.114Z,12.17
2023-04-21T03:58:56.844Z,11.70
2023-04-21T04:01:27.570Z,12.23
2023-04-21T04:03:58.511Z,12.93
2023-04-21T04:06:29.041Z,14.13
2023-04-21T04:09:02.038Z,14.70
2023-04-21T04:11:32.552Z,15.57
2023-04-21T04:14:02.698Z,16.03
2023-04-21T04:16:35.695Z,16.03
2023-04-21T04:19:05.840Z,16.60
2023-04-21T04:21:36.509Z,17.10
2023-04-21T04:24:08.470Z,17.63
2023-04-21T04:26:39.611Z,17.75
2023-04-21T04:29:10.911Z,17.03
2023-04-21T04:31:41.162Z,17.48
2023-04-21T04:34:11.813Z,16.17
2023-04-21T04:36:41.896Z,17.30
2023-04-21T04:39:12.265Z,18.13
2023-04-21T04:41:42.583Z,16.10
2023-04-21T04:44:14.944Z,16.50
2023-04-21T04:46:45.715Z,17.67
2023-04-21T04:49:16.195Z,16.80
2023-04-21T04:51:46.932Z,17.90
2023-04-21T04:54:17.966Z,17.40
2023-04-21T04:56:48.398Z,18.27
2023-04-21T04:59:18.718Z,17.90
2023-04-21T05:01:49.080Z,17.77
2023-04-21T05:04:20.585Z,17.53
2023-04-21T05:06:51.691Z,17.15
2023-04-21T05:09:22.059Z,17.43
2023-04-21T05:11:52.599Z,19.00
2023-04-21T05:14:22.708Z,20.47
2023-04-21T05:16:53.492Z,19.47
2023-04-21T05:19:24.371Z,20.03
2023-04-21T05:22:00.157Z,19.73
2023-04-21T05:24:30.758Z,20.77
2023-04-21T05:27:02.378Z,20.87
2023-04-21T05:29:33.859Z,19.77
2023-04-21T05:32:05.288Z,20.05
2023-04-21T05:34:35.939Z,18.97
2023-04-21T05:37:06.361Z,19.93
2023-04-21T05:39:36.595Z,21.27
2023-04-21T05:42:09.371Z,20.00
2023-04-21T05:44:40.092Z,19.43
2023-04-21T05:47:10.257Z,19.47
2023-04-21T05:49:40.342Z,18.73
2023-04-21T05:52:11.687Z,18.40
2023-04-21T05:54:42.415Z,18.20
2023-04-21T05:57:13.347Z,19.30
2023-04-21T05:59:44.075Z,17.30
2023-04-21T06:02:14.055Z,16.30
2023-04-21T06:04:45.140Z,16.17
2023-04-21T06:07:18.685Z,14.17
2023-04-21T06:09:52.672Z,15.60
2023-04-21T06:12:23.063Z,14.43
2023-04-21T06:14:57.002Z,14.90
2023-04-21T06:17:27.632Z,13.00
2023-04-21T06:19:58.744Z,12.60
2023-04-21T06:22:29.071Z,11.53
2023-04-21T06:25:00.630Z,12.47
2023-04-21T06:27:31.353Z,11.23
2023-04-21T06:30:02.079Z,10.97
2023-04-21T06:32:32.865Z,11.03
2023-04-21T06:35:03.546Z,9.97
2023-04-21T06:37:34.277Z,10.57
2023-04-21T06:40:06.425Z,9.77
2023-04-21T06:45:06.887Z,9.37
2023-04-21T06:47:37.250Z,9.13
2023-04-21T06:50:11.124Z,8.70
2023-04-21T06:52:41.746Z,7.53
2023-04-21T06:55:12.910Z,8.33
2023-04-21T06:57:43.213Z,8.23
2023-04-21T07:00:17.150Z,7.23
2023-04-21T07:02:47.252Z,7.67
2023-04-21T07:05:18.278Z,7.23
2023-04-21T07:07:48.072Z,6.57
2023-04-21T07:10:19.558Z,6.53
2023-04-21T07:12:49.448Z,5.85
2023-04-21T07:15:20.403Z,5.63
2023-04-21T07:17:51.147Z,6.20
2023-04-21T07:20:21.088Z,5.23
2023-04-21T07:22:50.642Z,6.33
2023-04-21T07:25:22.056Z,5.33
2023-04-21T07:27:52.012Z,5.15
2023-04-21T07:30:22.129Z,5.53
2023-04-21T07:32:53.113Z,5.50
2023-04-21T07:35:23.385Z,5.10
2023-04-21T07:37:53.011Z,5.80
2023-04-21T07:40:23.217Z,4.40
2023-04-21T07:42:53.331Z,3.83
2023-04-21T07:45:25.146Z,3.70
2023-04-21T07:47:55.759Z,4.22
2023-04-21T07:50:26.340Z,4.27
2023-04-21T07:52:55.772Z,2.70
2023-04-21T07:55:26.167Z,3.77
2023-04-21T07:57:56.902Z,3.43
2023-04-21T08:00:27.438Z,3.60
2023-04-21T08:02:58.418Z,4.33
2023-04-21T08:05:32.449Z,4.03
2023-04-21T08:08:04.769Z,4.80
2023-04-21T08:10:35.683Z,5.40
2023-04-21T08:13:06.010Z,5.93
2023-04-21T08:15:36.974Z,5.70
2023-04-21T08:18:08.550Z,4.90
2023-04-21T08:20:39.041Z,5.80
2023-04-21T08:23:08.907Z,5.50
2023-04-21T08:25:39.064Z,3.93
2023-04-21T08:28:09.865Z,4.20
2023-04-21T08:30:40.524Z,4.23
2023-04-21T08:33:13.368Z,3.63
2023-04-21T08:38:17.232Z,3.53
2023-04-21T08:40:49.808Z,3.60
2023-04-21T08:43:21.340Z,3.83
2023-04-21T08:45:53.691Z,3.90
2023-04-21T08:48:24.666Z,3.57
2023-04-21T08:50:55.186Z,3.83
2023-04-21T08:53:25.715Z,3.73
2023-04-21T08:56:09.884Z,4.27
2023-04-21T08:58:41.552Z,4.63
2023-04-21T09:01:12.180Z,4.20
2023-04-21T09:03:42.693Z,3.97
2023-04-21T09:06:13.863Z,4.60
2023-04-21T09:08:53.153Z,4.20
2023-04-21T09:11:23.575Z,4.00
2023-04-21T09:13:58.101Z,4.07
2023-04-21T09:16:32.452Z,3.97
2023-04-21T09:19:02.741Z,4.10
2023-04-21T09:21:33.671Z,3.90
2023-04-21T09:24:08.880Z,3.73
2023-04-21T09:26:39.034Z,3.90
2023-04-21T09:29:10.396Z,4.10
2023-04-21T09:31:40.786Z,3.97
2023-04-21T09:34:20.752Z,3.70
2023-04-21T09:36:59.574Z,3.80
2023-04-21T09:39:45.651Z,3.63
2023-04-21T09:42:31.143Z,2.97
2023-04-21T09:45:28.450Z,3.87
2023-04-21T09:47:56.203Z,3.50
2023-04-21T09:51:07.064Z,3.40
2023-04-21T09:53:22.409Z,3.27
2023-04-21T09:55:55.946Z,3.93
2023-04-21T09:58:30.369Z,3.57
2023-04-21T10:01:02.795Z,3.50
2023-04-21T10:03:34.224Z,3.40
2023-04-21T10:06:06.005Z,3.58
2023-04-21T10:11:08.386Z,3.53
2023-04-21T10:13:40.082Z,3.97
2023-04-21T10:16:11.531Z,3.80
2023-04-21T10:18:45.540Z,3.22
2023-04-21T10:21:21.398Z,4.50
2023-04-21T10:23:53.303Z,3.80
2023-04-21T10:26:25.683Z,3.20
2023-04-21T10:28:59.673Z,3.50
2023-04-21T10:31:35.611Z,3.03
2023-04-21T10:34:20.469Z,3.33
2023-04-21T10:37:15.017Z,3.00
2023-04-21T10:39:51.167Z,3.40
2023-04-21T10:42:24.131Z,3.50
2023-04-21T10:45:10.265Z,3.60
2023-04-21T10:47:46.004Z,3.10
2023-04-21T10:50:23.276Z,3.50
2023-04-21T10:52:59.203Z,3.40
2023-04-21T10:55:30.576Z,3.93
2023-04-21T10:58:04.799Z,2.90
2023-04-21T11:00:37.426Z,3.77
2023-04-21T11:03:09.504Z,3.00
2023-04-21T11:05:41.549Z,3.17
2023-04-21T11:08:15.583Z,3.03
2023-04-21T11:10:54.517Z,2.87
2023-04-21T11:13:26.794Z,3.20
2023-04-21T11:16:05.856Z,3.97
2023-04-21T11:18:41.652Z,3.63
2023-04-21T11:21:17.784Z,3.57
2023-04-21T11:23:52.900Z,3.23
2023-04-21T11:26:34.024Z,3.00
2023-04-21T11:29:07.045Z,2.90
2023-04-21T11:31:38.704Z,3.20
2023-04-21T11:36:43.934Z,3.43
2023-04-21T11:39:16.126Z,3.20
2023-04-21T11:41:48.908Z,3.10
2023-04-21T11:44:33.737Z,2.87
2023-04-21T11:47:14.115Z,3.40
2023-04-21T11:49:49.173Z,3.00
2023-04-21T11:52:28.487Z,2.70
2023-04-21T11:55:00.801Z,3.23
2023-04-21T11:57:32.823Z,3.53
2023-04-21T12:00:11.167Z,3.20
2023-04-21T12:02:41.773Z,3.80
2023-04-21T12:05:14.434Z,3.10
2023-04-21T12:07:45.776Z,3.93
2023-04-21T12:10:18.956Z,3.50
2023-04-21T12:12:50.108Z,3.17
2023-04-21T12:15:22.893Z,3.53
2023-04-21T12:17:54.737Z,2.60
2023-04-21T12:20:28.602Z,3.10
2023-04-21T12:23:00.313Z,2.97
2023-04-21T12:25:30.733Z,3.53
2023-04-21T12:28:01.476Z,2.93
2023-04-21T12:30:33.404Z,2.80
2023-04-21T12:33:05.638Z,3.00
2023-04-21T12:35:36.346Z,3.10
2023-04-21T12:38:06.193Z,2.90
2023-04-21T12:40:36.975Z,3.20
2023-04-21T12:43:07.509Z,3.13
2023-04-21T12:45:38.604Z,3.13
2023-04-21T12:48:09.026Z,3.62
2023-04-21T12:50:39.497Z,3.33
2023-04-21T12:53:09.469Z,2.70
2023-04-21T12:55:42.898Z,3.10
2023-04-21T12:58:21.116Z,3.30
2023-04-21T13:00:51.889Z,4.20
2023-04-21T13:03:22.781Z,3.30
2023-04-21T13:05:54.336Z,3.10
2023-04-21T13:08:23.773Z,3.40
2023-04-21T13:10:55.459Z,3.23
2023-04-21T13:13:26.325Z,3.10
2023-04-21T13:15:57.066Z,3.70
2023-04-21T13:18:27.598Z,2.90
2023-04-21T13:20:58.117Z,3.00
2023-04-21T13:23:28.657Z,2.70
2023-04-21T13:26:00.343Z,3.00
2023-04-21T13:28:30.312Z,2.85
2023-04-21T13:31:01.099Z,3.07
2023-04-21T13:33:34.603Z,3.20
2023-04-21T13:36:06.425Z,3.00
2023-04-21T13:38:36.933Z,3.17
2023-04-21T13:41:08.081Z,3.20
2023-04-21T13:43:37.997Z,3.10
2023-04-21T13:46:08.197Z,3.07
2023-04-21T13:48:38.851Z,3.10
2023-04-21T13:51:09.569Z,3.23
2023-04-21T13:53:40.108Z,2.90
2023-04-21T13:56:11.859Z,3.20
2023-04-21T14:01:14.620Z,3.43
2023-04-21T14:03:45.844Z,3.33
2023-04-21T14:06:17.066Z,3.50
2023-04-21T14:08:46.986Z,3.37
2023-04-21T14:11:16.866Z,3.60
2023-04-21T14:14:00.903Z,3.57
2023-04-21T14:16:38.871Z,3.33
2023-04-21T14:19:10.376Z,3.00
2023-04-21T14:21:40.282Z,3.00
2023-04-21T14:24:10.616Z,2.90
2023-04-21T14:26:40.941Z,4.20
2023-04-21T14:29:11.725Z,3.27
2023-04-21T14:31:42.445Z,3.53
2023-04-21T14:34:13.177Z,3.10
2023-04-21T14:36:44.064Z,3.05
2023-04-21T14:39:14.191Z,3.30
2023-04-21T14:41:44.495Z,3.57
2023-04-21T14:44:15.860Z,3.77
2023-04-21T14:46:56.836Z,3.47
2023-04-21T14:49:31.865Z,3.40
2023-04-21T14:52:03.264Z,4.07
2023-04-21T14:54:33.325Z,3.45
2023-04-21T14:57:18.686Z,3.53
2023-04-21T14:59:53.451Z,3.27
2023-04-21T15:02:24.107Z,3.40
2023-04-21T15:04:54.761Z,3.62
2023-04-21T15:07:25.820Z,3.00
2023-04-21T15:09:56.150Z,3.30
2023-04-21T15:12:26.674Z,3.20
2023-04-21T15:14:57.054Z,3.37
2023-04-21T15:17:27.749Z,3.00
2023-04-21T15:19:58.517Z,3.23
2023-04-21T15:22:29.396Z,3.43
2023-04-21T15:24:59.948Z,3.37
2023-04-21T15:27:30.657Z,3.93
2023-04-21T15:30:03.376Z,3.13
2023-04-21T15:32:33.775Z,3.23
2023-04-21T15:35:05.126Z,3.50
2023-04-21T15:37:36.045Z,2.90
2023-04-21T15:40:10.941Z,3.33
2023-04-21T15:42:41.630Z,3.03
2023-04-21T15:45:13.625Z,3.57
2023-04-21T15:50:13.805Z,3.47
2023-04-21T15:52:44.594Z,3.10
2023-04-21T15:55:15.531Z,3.17
2023-04-21T15:57:46.645Z,3.83
2023-04-21T16:00:20.240Z,3.37
2023-04-21T16:02:51.106Z,3.47
2023-04-21T16:05:23.811Z,3.80
2023-04-21T16:07:56.373Z,3.60
2023-04-21T16:10:27.293Z,3.53
2023-04-21T16:12:57.811Z,3.43
2023-04-21T16:15:28.724Z,4.00
2023-04-21T16:18:01.707Z,4.05
2023-04-21T16:20:32.633Z,4.30
2023-04-21T16:23:04.390Z,4.50
2023-04-21T16:25:34.547Z,3.87
2023-04-21T16:28:05.839Z,3.70
2023-04-21T16:30:35.977Z,4.60
2023-04-21T16:33:09.011Z,3.47
2023-04-21T16:35:39.797Z,4.43
2023-04-21T16:38:10.457Z,4.00
2023-04-21T16:40:40.812Z,4.07
2023-04-21T16:43:11.483Z,4.00
2023-04-21T16:45:42.618Z,5.50
2023-04-21T16:48:12.697Z,6.22
2023-04-21T16:50:44.857Z,6.23
2023-04-21T16:53:15.295Z,6.70
2023-04-21T16:55:45.967Z,6.57
2023-04-21T16:58:16.490Z,5.80
2023-04-21T17:00:47.259Z,6.20
2023-04-21T17:03:18.324Z,7.03
2023-04-21T17:05:48.686Z,6.40
2023-04-21T17:08:18.366Z,6.37
2023-04-21T17:10:48.516Z,5.20
2023-04-21T17:13:19.449Z,4.50
2023-04-21T17:15:49.979Z,5.07
2023-04-21T17:18:20.183Z,5.40
2023-04-21T17:20:50.828Z,5.20
2023-04-21T17:23:21.595Z,4.80
2023-04-21T17:25:52.298Z,5.53
2023-04-21T17:28:22.538Z,5.67
2023-04-21T17:31:00.306Z,6.00
2023-04-21T17:33:38.650Z,5.70
2023-04-21T17:36:10.900Z,6.43
2023-04-21T17:41:12.043Z,6.40
2023-04-21T17:43:42.985Z,5.97
2023-04-21T17:46:13.542Z,5.27
2023-04-21T17:48:45.471Z,6.70
2023-04-21T17:51:15.995Z,7.30
2023-04-21T17:53:46.330Z,6.47
2023-04-21T17:56:18.425Z,6.57
2023-04-21T17:58:49.021Z,7.40
2023-04-21T18:01:19.576Z,7.87
2023-04-21T18:03:49.574Z,8.70
2023-04-21T18:06:20.397Z,12.17
2023-04-21T18:08:50.721Z,13.87
2023-04-21T18:11:21.255Z,7.53
2023-04-21T18:13:51.778Z,6.00
2023-04-21T18:16:22.559Z,6.40
2023-04-21T18:18:53.448Z,7.17
2023-04-21T18:21:24.179Z,7.90
2023-04-21T18:23:55.321Z,9.13
2023-04-21T18:26:26.267Z,7.60
2023-04-21T18:28:57.810Z,7.73
2023-04-21T18:31:31.071Z,7.50
2023-04-21T18:34:01.523Z,6.80
2023-04-21T18:36:33.411Z,6.70
2023-04-21T18:39:04.428Z,7.00
2023-04-21T18:41:34.749Z,5.83
2023-04-21T18:44:06.116Z,6.07
2023-04-21T18:46:36.025Z,6.30
2023-04-21T18:49:07.164Z,6.90
2023-04-21T18:51:37.680Z,7.10
2023-04-21T18:54:08.417Z,7.00
2023-04-21T18:56:38.940Z,6.30
2023-04-21T18:59:10.086Z,6.20
2023-04-21T19:01:41.578Z,6.90
2023-04-21T19:04:12.684Z,7.30
2023-04-21T19:06:43.511Z,6.50
2023-04-21T19:09:13.627Z,6.90
2023-04-21T19:11:44.774Z,7.00
2023-04-21T19:14:15.097Z,7.10
2023-04-21T19:16:47.102Z,7.30
2023-04-21T19:19:21.003Z,8.00
2023-04-21T19:21:51.386Z,8.08
2023-04-21T19:24:22.948Z,7.20
2023-04-21T19:26:53.469Z,8.08
2023-04-21T19:29:24.199Z,8.83
2023-04-21T19:31:54.985Z,8.53
2023-04-21T19:34:26.483Z,9.00
2023-04-21T19:36:56.399Z,9.63
2023-04-21T19:39:26.720Z,8.73
2023-04-21T19:41:57.655Z,8.90
2023-04-21T19:44:27.988Z,8.50
2023-04-21T19:46:58.917Z,9.57
2023-04-21T19:49:29.445Z,9.13
2023-04-21T19:52:00.588Z,8.67
2023-04-21T19:54:31.745Z,7.90
2023-04-21T19:57:02.262Z,8.20
2023-04-21T19:59:34.127Z,10.33
2023-04-21T20:02:05.028Z,8.23
2023-04-21T20:04:36.984Z,8.48
2023-04-21T20:09:37.170Z,7.53
2023-04-21T20:12:08.705Z,7.50
2023-04-21T20:14:39.026Z,8.77
2023-04-21T20:17:10.164Z,10.50
2023-04-21T20:19:40.960Z,10.00
2023-04-21T20:22:12.453Z,9.07
2023-04-21T20:24:42.770Z,9.10
2023-04-21T20:27:13.097Z,9.40
2023-04-21T20:29:43.424Z,9.27
2023-04-21T20:32:13.536Z,8.67
2023-04-21T20:34:44.272Z,8.80
2023-04-21T20:37:15.622Z,9.63
2023-04-21T20:39:46.350Z,9.00
2023-04-21T20:42:18.443Z,8.60
2023-04-21T20:44:48.841Z,8.03
2023-04-21T20:47:19.573Z,8.20
2023-04-21T20:49:50.738Z,8.53
2023-04-21T20:52:21.036Z,8.10
2023-04-21T20:54:51.360Z,8.23
2023-04-21T20:57:21.476Z,9.23
2023-04-21T20:59:52.824Z,7.70
2023-04-21T21:02:23.052Z,8.23
2023-04-21T21:04:53.874Z,8.30
2023-04-21T21:07:24.614Z,8.33
2023-04-21T21:09:56.161Z,7.27
2023-04-21T21:12:26.893Z,7.53
2023-04-21T21:14:57.627Z,8.07
2023-04-21T21:17:28.577Z,7.20
2023-04-21T21:19:58.881Z,7.50
2023-04-21T21:22:29.208Z,8.07
2023-04-21T21:24:59.747Z,6.77
2023-04-21T21:27:30.283Z,7.77
2023-04-21T21:30:02.596Z,7.10
2023-04-21T21:32:34.005Z,7.43
2023-04-21T21:35:04.507Z,7.17
2023-04-21T21:37:35.248Z,8.67
2023-04-21T21:40:08.751Z,7.23
2023-04-21T21:42:39.940Z,6.77
2023-04-21T21:45:13.061Z,7.27
2023-04-21T21:47:45.619Z,7.90
2023-04-21T21:50:16.071Z,7.37
2023-04-21T21:52:46.805Z,6.97
2023-04-21T21:55:17.953Z,7.90
2023-04-21T21:57:48.472Z,7.10
2023-04-21T22:00:20.229Z,8.00
2023-04-21T22:02:50.420Z,7.70
2023-04-21T22:05:22.104Z,7.77
2023-04-21T22:07:53.247Z,7.80
2023-04-21T22:10:23.798Z,8.43
2023-04-21T22:12:55.339Z,7.80
2023-04-21T22:15:25.801Z,7.30
2023-04-21T22:17:56.636Z,7.73
2023-04-21T22:20:27.660Z,8.43
2023-04-21T22:22:58.806Z,8.60
2023-04-21T22:25:29.400Z,8.53
2023-04-21T22:27:59.522Z,8.57
2023-04-21T22:30:30.259Z,8.07
2023-04-21T22:33:00.803Z,7.73
2023-04-21T22:35:32.120Z,7.57
2023-04-21T22:38:03.270Z,7.20
2023-04-21T22:40:34.206Z,7.77
2023-04-21T22:43:05.348Z,7.97
2023-04-21T22:45:35.664Z,7.70
2023-04-21T22:48:07.384Z,7.70
2023-04-21T22:50:37.746Z,9.08
2023-04-21T22:53:08.476Z,7.53
2023-04-21T22:55:39.413Z,8.40
2023-04-21T22:58:10.169Z,9.17
2023-04-21T23:00:41.114Z,8.33
2023-04-21T23:03:12.202Z,9.57
2023-04-21T23:05:42.756Z,7.90
2023-04-21T23:08:13.692Z,8.43
2023-04-21T23:10:44.227Z,8.13
2023-04-21T23:13:15.160Z,8.03
2023-04-21T23:15:45.684Z,8.40
2023-04-21T23:18:16.632Z,8.27
2023-04-21T23:20:47.362Z,7.87
2023-04-21T23:23:18.091Z,8.27
2023-04-21T23:25:49.022Z,8.53
2023-04-21T23:28:20.081Z,7.90
2023-04-21T23:30:50.517Z,8.03
2023-04-21T23:33:21.018Z,7.97
2023-04-21T23:35:52.160Z,8.17
2023-04-21T23:38:22.481Z,8.60
2023-04-21T23:40:53.417Z,7.90
2023-04-21T23:43:23.740Z,8.03
2023-04-21T23:45:54.111Z,8.40
2023-04-21T23:48:24.383Z,8.67
2023-04-21T23:50:55.600Z,8.40
2023-04-21T23:53:26.257Z,7.60
2023-04-21T23:55:57.195Z,7.43
2023-04-21T23:58:28.131Z,7.97
